세미나안내

[2014 03 12] 정기세미나 1st

Fe Based Superconductor Thin Films: From Synthesis to Artificially Engineered Superlattices

MSE Graduate Students and Researchers

관리자 | 2014.03.17 13:07 | 조회 2564


Reception: MSE Graduate Students and Researchers

Reference: MSE Professors

Subject: The 1st Seminar - Spring Semester, 2014 

 

 Date: 2014. 3. 12(Wed), 17:00 ~ 18:15

 Place: Engineering Building, Room.202 Multimedia Room

 Title: Fe Based Superconductor Thin Films: From Synthesis to Artificially Engineered Superlattices

 Speaker: Prof. Sanghan Lee (Gwangju Institute of Science and Technology)

Host of a Seminar: Prof. Junwoo Son

Speaker Language: ENGLISH

 

Abstract:

The synthesis of high quality single crystal thin films and multilayers of pnictide superconductors is critical to explore their intrinsic properties and evaluate novel device applications. In this study, we have grown genuine epitaxial thin films of Co-doped BaFe2As2 (Ba-122) by employing template engineering on single-crystal (001) SrTiO3 (STO) template on (001) (La,Sr)(Al,Ta)O3 substrates with strong c-axis flux pinning[1]. Beyond the single layer Ba-122 thin films, artificial layered pnictide superlattices offer unique opportunity towards tailoring superconducting properties and understanding the mechanisms of superconductivity by creating model structures which do not exist in nature. The synthesis of artificial layered superlattices of pnictide superconductors opens many avenues for superconducting electronic device applications and for model experiment in superconductivity[2].

 

[1] S. Lee et al., Template engineering of Co-doped BaFe2As2 single-crystal thin films, Nat. Mater., 9, 397-402 (2010)

 

[2] S. Lee et al., Artificially engineered superlattices of pnictide superconductors, Nat. Mater., 12, 392-396, (2013)

 

Department of Materials Science and Engineering

 



172개(8/9페이지)
세미나안내
번호 제목 글쓴이 조회 날짜
32 [2014 04 15] 특별세미나 (신소재공학과 석학교수) 관리자 2845 2014.04.14 13:07
31 [2014 04 09] 정기세미나 5th 관리자 2483 2014.04.01 08:58
30 [2014 04 17] 특별세미나 (BK21PLUS) 관리자 2601 2014.04.02 11:30
29 [2014 04 02] 정기세미나 4th 관리자 2607 2014.04.01 08:58
28 [2014 03 26] 정기세미나 3rd 관리자 2934 2014.03.25 09:07
27 [2014 03 28] 특별세미나 (BK21PLUS) 관리자 2388 2014.03.24 15:43
26 [2014 03 20] 특별세미나 (BK21PLUS) 관리자 2716 2014.03.17 13:09
25 [2014 03 19] 정기세미나 2nd 관리자 2370 2014.03.17 13:08
>> [2014 03 12] 정기세미나 1st 관리자 2565 2014.03.17 13:07
23 [2014 03 05] 정기특별세미나 관리자 2505 2014.03.03 11:21
22 [2014 03 06] 특별세미나 (BK21PLUS) 관리자 2608 2014.03.03 11:19
21 [2014 02 25] KIST Showcase 안내 첨부파일 관리자 2730 2014.02.10 10:53
20 [2014 01 27] IBS 초청 세미나 첨부파일 관리자 3139 2014.01.24 16:52
19 [2014 01 23] IBS 초청 세미나 첨부파일 관리자 3201 2014.01.15 15:36
18 [2014 01 14] 특별세미나 (BK21PLUS) 관리자 2894 2014.01.13 09:28
17 [2014 01 10] 특별세미나 관리자 2854 2014.01.10 11:30
16 [2014 01 08] 특별세미나 (BK21PLUS) 관리자 2636 2014.01.07 09:17
15 [2014 02 24] 특별세미나 관리자 2956 2013.12.23 09:21
14 [2013 12 12] 특별세미나 관리자 2995 2013.12.06 15:52
13 [2013 12 11] 정기세미나 12th 관리자 3410 2013.12.06 15:52